Time;durP1;ratioP1;P1;durP2;ratioP2;P2;SDS_P1;SDS_P2;PMS_P1;PMS_P2;Temp;Humidity;BMP_temperature;BMP_pressure;BME280_temperature;BME280_humidity;BME280_pressure;Samples;Min_cycle;Max_cycle;Signal;HPM_P1;HPM_P2
2022/11/01 00:02:15;;;;;;;29.45;14.75;;;12.60;99.90;;;;;;5024310;28;20039;-81
2022/11/01 00:04:41;;;;;;;31.98;14.43;;;12.60;99.90;;;;;;5025982;28;20048;-81
2022/11/01 00:07:06;;;;;;;27.85;13.63;;;12.60;99.90;;;;;;5024102;28;20397;-80
2022/11/01 00:09:32;;;;;;;29.40;13.93;;;12.60;99.90;;;;;;5032346;28;20435;-79
2022/11/01 00:11:58;;;;;;;25.10;14.07;;;12.80;99.90;;;;;;5036542;28;20063;-78
2022/11/01 00:14:24;;;;;;;33.30;14.25;;;12.60;99.90;;;;;;5043288;28;20033;-76
2022/11/01 00:16:49;;;;;;;28.48;13.82;;;12.70;99.90;;;;;;5037538;28;20041;-80
2022/11/01 00:19:15;;;;;;;27.95;14.32;;;12.60;99.90;;;;;;5040715;28;20091;-78
2022/11/01 00:21:41;;;;;;;26.65;13.38;;;12.70;99.90;;;;;;5026114;28;20091;-81
2022/11/01 00:24:07;;;;;;;24.33;12.82;;;12.60;99.90;;;;;;5035400;28;20045;-80
2022/11/01 00:26:32;;;;;;;31.70;13.73;;;12.70;99.90;;;;;;5027488;28;20473;-81
2022/11/01 00:28:58;;;;;;;28.40;13.40;;;12.80;99.90;;;;;;5016255;28;20048;-78
2022/11/01 00:31:24;;;;;;;26.02;13.35;;;12.70;99.90;;;;;;5036279;28;20596;-84
2022/11/01 00:33:50;;;;;;;25.38;12.43;;;12.60;99.90;;;;;;5001663;28;20039;-77
2022/11/01 00:36:16;;;;;;;27.08;12.80;;;12.80;99.90;;;;;;5031728;28;20033;-80
2022/11/01 00:38:41;;;;;;;28.60;12.48;;;12.80;99.90;;;;;;5023464;28;20045;-78
2022/11/01 00:41:07;;;;;;;23.48;12.52;;;12.80;99.90;;;;;;5038925;28;20171;-81
2022/11/01 00:43:34;;;;;;;27.75;13.30;;;12.80;99.90;;;;;;5021726;28;20044;-81
2022/11/01 00:46:00;;;;;;;29.80;12.70;;;12.70;99.90;;;;;;5035863;28;20065;-79
2022/11/01 00:48:26;;;;;;;22.58;11.85;;;12.90;99.90;;;;;;5035469;28;20106;-79
2022/11/01 00:50:52;;;;;;;25.00;12.40;;;12.90;99.90;;;;;;5035166;28;20503;-79
2022/11/01 00:53:19;;;;;;;30.67;12.75;;;13.00;99.90;;;;;;5037821;28;20044;-79
2022/11/01 00:55:44;;;;;;;26.05;12.05;;;12.90;99.90;;;;;;5037682;28;20056;-80
2022/11/01 00:58:10;;;;;;;31.50;12.60;;;13.00;99.90;;;;;;5037458;28;20065;-83
2022/11/01 01:00:36;;;;;;;20.73;12.50;;;12.90;99.90;;;;;;5036921;28;20045;-81
2022/11/01 01:03:03;;;;;;;27.60;11.55;;;13.00;99.90;;;;;;5039383;28;20041;-81
2022/11/01 01:05:29;;;;;;;20.67;11.32;;;12.90;99.90;;;;;;5010542;28;20136;-80
2022/11/01 01:07:55;;;;;;;24.92;11.57;;;12.90;99.90;;;;;;5006442;28;20123;-80
2022/11/01 01:10:21;;;;;;;22.95;10.88;;;13.10;99.90;;;;;;5022297;28;20473;-82
2022/11/01 01:12:46;;;;;;;22.23;10.73;;;13.00;99.90;;;;;;5022339;28;20079;-79
2022/11/01 01:15:12;;;;;;;21.38;10.27;;;13.00;99.90;;;;;;5009077;28;20039;-77
2022/11/01 01:17:39;;;;;;;20.33;10.48;;;13.10;99.90;;;;;;5018878;28;20459;-81
2022/11/01 01:20:06;;;;;;;22.45;10.88;;;13.00;99.90;;;;;;5024113;28;20034;-80
2022/11/01 01:22:32;;;;;;;21.45;10.85;;;13.10;99.90;;;;;;5015485;28;20033;-79
2022/11/01 01:24:58;;;;;;;27.25;10.18;;;13.00;99.90;;;;;;5021549;28;20041;-77
2022/11/01 01:27:23;;;;;;;25.33;10.35;;;13.00;99.90;;;;;;5019102;28;20084;-79
2022/11/01 01:29:50;;;;;;;27.27;9.85;;;13.10;99.90;;;;;;4994777;28;20369;-80
2022/11/01 01:32:20;;;;;;;22.17;9.90;;;13.30;99.90;;;;;;5020296;28;20041;-81
2022/11/01 01:34:46;;;;;;;20.23;9.98;;;13.20;99.90;;;;;;5014697;28;20068;-83
2022/11/01 01:37:14;;;;;;;20.88;9.85;;;13.30;99.90;;;;;;5022787;28;20069;-79
2022/11/01 01:39:39;;;;;;;21.40;10.00;;;13.40;99.90;;;;;;5006991;28;20421;-84
2022/11/01 01:42:35;;;;;;;22.90;9.10;;;13.40;99.90;;;;;;5010780;28;20045;-81
2022/11/01 01:45:05;;;;;;;23.10;9.50;;;13.40;99.90;;;;;;5027073;28;20079;-80
2022/11/01 01:47:36;;;;;;;23.63;8.63;;;13.50;99.90;;;;;;5027830;28;20049;-81
2022/11/01 01:50:11;;;;;;;24.75;9.15;;;13.40;99.90;;;;;;5009028;28;20041;-79
2022/11/01 01:52:50;;;;;;;24.50;8.80;;;13.50;99.90;;;;;;5013460;28;20064;-83
2022/11/01 01:55:19;;;;;;;22.50;9.20;;;13.40;99.90;;;;;;5025350;28;20132;-80
2022/11/01 01:57:46;;;;;;;24.60;8.65;;;13.40;99.90;;;;;;5004924;28;20045;-79
2022/11/01 02:00:12;;;;;;;19.38;8.88;;;13.60;99.90;;;;;;5026181;28;20033;-81
2022/11/01 02:02:40;;;;;;;19.85;8.93;;;13.60;99.90;;;;;;5010618;28;20384;-80
2022/11/01 02:05:30;;;;;;;20.13;8.88;;;13.50;99.90;;;;;;5001405;28;20063;-79
2022/11/01 02:07:57;;;;;;;30.25;9.35;;;13.60;99.90;;;;;;5028845;28;20086;-79
2022/11/01 02:10:23;;;;;;;19.02;9.15;;;13.60;99.90;;;;;;5042046;28;20044;-82
2022/11/01 02:12:49;;;;;;;24.40;9.80;;;13.60;99.90;;;;;;5025056;28;20056;-80
2022/11/01 02:15:17;;;;;;;21.88;9.50;;;13.50;99.90;;;;;;5010808;28;20081;-80
2022/11/01 02:18:00;;;;;;;21.90;9.32;;;13.50;99.90;;;;;;5021058;28;20041;-79
2022/11/01 02:20:52;;;;;;;26.92;8.68;;;13.70;99.90;;;;;;5032046;28;20036;-79
2022/11/01 02:23:34;;;;;;;18.52;8.73;;;13.50;99.90;;;;;;5028598;28;20349;-79
2022/11/01 02:26:18;;;;;;;19.52;8.95;;;13.70;99.90;;;;;;5013373;28;20071;-79
2022/11/01 02:29:03;;;;;;;19.30;8.70;;;13.60;99.90;;;;;;5019765;28;21711;-78
2022/11/01 02:32:03;;;;;;;20.42;8.68;;;13.60;99.90;;;;;;5008977;28;20167;-83
2022/11/01 02:34:34;;;;;;;21.52;8.63;;;13.60;99.90;;;;;;5012621;28;20045;-79
2022/11/01 02:37:11;;;;;;;20.42;9.02;;;13.70;99.90;;;;;;5019032;28;20534;-79
2022/11/01 02:39:43;;;;;;;21.52;9.30;;;13.60;99.90;;;;;;5038936;28;20365;-83
2022/11/01 02:42:14;;;;;;;20.80;8.60;;;13.60;99.90;;;;;;4998777;28;20570;-83
2022/11/01 02:44:44;;;;;;;15.63;8.13;;;13.60;99.90;;;;;;4992045;28;20051;-82
2022/11/01 02:47:11;;;;;;;19.83;8.70;;;13.70;99.90;;;;;;5009804;28;20045;-81
2022/11/01 02:49:43;;;;;;;20.17;8.63;;;13.70;99.90;;;;;;4991094;28;20119;-81
2022/11/01 02:52:18;;;;;;;18.17;8.32;;;13.60;99.90;;;;;;5003526;28;20034;-80
2022/11/01 02:55:00;;;;;;;15.70;8.05;;;13.60;99.90;;;;;;4995058;28;20041;-78
2022/11/01 02:57:40;;;;;;;23.35;8.70;;;13.60;99.90;;;;;;4994702;28;20056;-82
2022/11/01 03:00:21;;;;;;;21.42;8.25;;;13.70;99.90;;;;;;5008698;28;20045;-79
2022/11/01 03:02:59;;;;;;;22.42;8.73;;;13.70;99.90;;;;;;4987895;28;20049;-84
2022/11/01 03:05:35;;;;;;;24.55;8.88;;;13.70;99.90;;;;;;5004098;28;20103;-77
2022/11/01 03:08:08;;;;;;;18.50;8.18;;;13.70;99.90;;;;;;4984622;28;20400;-79
2022/11/01 03:10:55;;;;;;;20.98;8.23;;;13.80;99.90;;;;;;4979489;28;20095;-80
2022/11/01 03:13:28;;;;;;;21.00;7.90;;;13.80;99.90;;;;;;5003989;28;20102;-77
2022/11/01 03:16:20;;;;;;;23.58;8.48;;;13.90;99.90;;;;;;5005290;28;20041;-78
2022/11/01 03:19:06;;;;;;;17.17;7.65;;;13.80;99.90;;;;;;4909531;29;20164;-81
2022/11/01 03:21:42;;;;;;;23.85;7.75;;;13.80;99.90;;;;;;4895368;29;20028;-82
2022/11/01 03:24:27;;;;;;;15.98;7.53;;;13.80;99.90;;;;;;4925059;29;20063;-79
2022/11/01 03:27:33;;;;;;;17.00;7.28;;;13.80;99.90;;;;;;4910675;29;20039;-81
2022/11/01 03:30:09;;;;;;;25.92;7.75;;;13.80;99.90;;;;;;4910102;29;20051;-79
2022/11/01 03:32:44;;;;;;;21.70;7.90;;;13.70;99.90;;;;;;4911731;29;20137;-82
2022/11/01 03:35:17;;;;;;;19.65;7.78;;;13.80;99.90;;;;;;4907193;29;20048;-79
2022/11/01 03:37:45;;;;;;;22.58;8.35;;;13.80;99.90;;;;;;4897894;29;20039;-82
2022/11/01 03:40:14;;;;;;;17.20;7.60;;;13.70;99.90;;;;;;4909920;29;20199;-82
2022/11/01 03:42:42;;;;;;;19.77;7.85;;;13.90;99.90;;;;;;4913637;29;20055;-78
2022/11/01 03:45:11;;;;;;;21.13;8.57;;;13.80;99.90;;;;;;4929133;29;20503;-82
2022/11/01 03:47:36;;;;;;;25.52;8.25;;;13.90;99.90;;;;;;4930904;29;20071;-82
2022/11/01 03:50:18;;;;;;;17.15;7.88;;;13.90;99.90;;;;;;4932310;29;20081;-82
2022/11/01 03:52:44;;;;;;;16.83;7.22;;;13.80;99.90;;;;;;4928899;29;20110;-79
2022/11/01 03:55:19;;;;;;;24.55;7.53;;;13.90;99.90;;;;;;4940755;28;20076;-80
2022/11/01 03:57:54;;;;;;;15.73;7.30;;;13.90;99.90;;;;;;4992250;28;20070;-81
2022/11/01 04:00:41;;;;;;;20.65;7.45;;;13.90;99.90;;;;;;5000017;28;20389;-83
2022/11/01 04:03:07;;;;;;;18.58;7.10;;;13.90;99.90;;;;;;4997925;28;20081;-79
2022/11/01 04:05:38;;;;;;;16.10;7.32;;;13.80;99.90;;;;;;4985782;28;20496;-80
2022/11/01 04:08:05;;;;;;;19.70;6.95;;;13.90;99.90;;;;;;5004236;28;20472;-80
2022/11/01 04:10:31;;;;;;;20.20;7.28;;;13.80;99.90;;;;;;5001242;28;20522;-79
2022/11/01 04:12:57;;;;;;;15.00;7.38;;;13.70;99.90;;;;;;4996922;28;20148;-82
2022/11/01 04:21:10;;;;;;;14.25;6.82;;;13.80;99.90;;;;;;5031931;28;20053;-80
2022/11/01 04:23:36;;;;;;;20.05;7.75;;;13.80;99.90;;;;;;5013106;28;20092;-78
2022/11/01 04:26:03;;;;;;;16.70;7.00;;;13.80;99.90;;;;;;4992564;28;20070;-81
2022/11/01 04:28:30;;;;;;;18.05;6.60;;;13.90;99.90;;;;;;5003137;28;20121;-83
2022/11/01 04:30:56;;;;;;;17.48;6.63;;;13.80;99.90;;;;;;4984217;28;20513;-79
2022/11/01 04:33:22;;;;;;;14.80;6.43;;;14.20;99.90;;;;;;4988756;28;20052;-82
2022/11/01 04:35:48;;;;;;;13.57;6.30;;;13.90;99.90;;;;;;4983019;28;20048;-80
2022/11/01 04:38:15;;;;;;;18.80;6.72;;;13.90;99.90;;;;;;4987254;28;20087;-81
2022/11/01 04:40:41;;;;;;;16.98;6.85;;;14.00;99.90;;;;;;5008124;28;20058;-81
2022/11/01 04:43:08;;;;;;;18.65;6.25;;;14.20;99.90;;;;;;5002680;28;20143;-78
2022/11/01 04:45:33;;;;;;;20.52;6.78;;;14.10;99.90;;;;;;5001941;28;20540;-80
2022/11/01 04:48:12;;;;;;;20.65;6.85;;;14.20;99.90;;;;;;5006442;28;20040;-78
2022/11/01 04:50:42;;;;;;;15.48;6.50;;;14.30;99.90;;;;;;5036146;28;20139;-80
2022/11/01 04:53:09;;;;;;;23.55;6.30;;;14.30;99.90;;;;;;5016175;28;20095;-80
2022/11/01 04:55:34;;;;;;;11.82;5.82;;;14.30;99.90;;;;;;5001865;28;20102;-79
2022/11/01 04:58:00;;;;;;;11.00;5.50;;;14.30;99.90;;;;;;5007789;28;20054;-82
2022/11/01 05:00:27;;;;;;;14.40;5.32;;;14.30;99.90;;;;;;5006732;28;20040;-79
2022/11/01 05:03:02;;;;;;;12.57;5.25;;;14.40;99.90;;;;;;5019749;28;20039;-80
2022/11/01 05:05:29;;;;;;;17.75;5.85;;;14.40;99.90;;;;;;5021607;28;20045;-79
2022/11/01 05:08:04;;;;;;;16.67;5.72;;;14.50;99.90;;;;;;5018580;28;20045;-81
2022/11/01 05:10:31;;;;;;;14.27;6.00;;;14.50;99.90;;;;;;5017374;28;20730;-79
2022/11/01 05:12:56;;;;;;;13.57;5.53;;;14.40;99.90;;;;;;5021409;28;20171;-80
2022/11/01 05:15:22;;;;;;;15.60;5.50;;;14.50;99.90;;;;;;5016831;28;20135;-80
2022/11/01 05:17:48;;;;;;;11.70;5.35;;;14.40;99.90;;;;;;5007434;28;20044;-82
2022/11/01 05:20:14;;;;;;;14.32;5.00;;;14.50;99.90;;;;;;4987608;28;20052;-83
2022/11/01 05:22:39;;;;;;;15.30;5.05;;;14.60;99.90;;;;;;5013587;28;20397;-81
2022/11/01 05:25:08;;;;;;;12.25;4.82;;;14.70;99.90;;;;;;5016249;28;20049;-79
2022/11/01 05:27:56;;;;;;;12.48;4.65;;;14.80;99.90;;;;;;5022861;28;20044;-80
2022/11/01 05:30:22;;;;;;;16.58;5.22;;;14.80;99.90;;;;;;5001496;28;20066;-80
2022/11/01 05:32:47;;;;;;;15.80;4.97;;;14.90;99.90;;;;;;5022362;28;20056;-79
2022/11/01 05:35:13;;;;;;;10.75;4.50;;;14.90;99.90;;;;;;5022669;28;20512;-78
2022/11/01 05:37:39;;;;;;;13.90;4.82;;;14.90;99.90;;;;;;5011226;28;20124;-82
2022/11/01 05:40:05;;;;;;;10.88;4.53;;;14.80;99.90;;;;;;5008366;28;20039;-81
2022/11/01 05:42:31;;;;;;;20.25;5.13;;;14.90;99.90;;;;;;5025130;28;20082;-78
2022/11/01 05:44:56;;;;;;;17.05;5.13;;;15.00;99.90;;;;;;5031783;28;20098;-84
2022/11/01 05:47:22;;;;;;;14.40;4.20;;;14.90;99.90;;;;;;5025174;28;20098;-78
2022/11/01 05:49:48;;;;;;;15.77;4.00;;;15.00;99.90;;;;;;5033769;28;20041;-81
2022/11/01 05:52:13;;;;;;;7.88;3.40;;;14.90;99.90;;;;;;5030462;28;20121;-81
2022/11/01 05:54:39;;;;;;;19.55;3.05;;;14.80;99.90;;;;;;5025731;28;21600;-79
2022/11/01 05:57:05;;;;;;;15.52;2.88;;;14.70;99.90;;;;;;5023539;28;20069;-81
2022/11/01 05:59:30;;;;;;;11.50;2.30;;;14.70;99.90;;;;;;5043132;28;20129;-81
2022/11/01 06:01:56;;;;;;;14.90;2.40;;;14.70;99.90;;;;;;5027061;28;20033;-78
2022/11/01 06:04:22;;;;;;;7.53;1.83;;;14.70;99.90;;;;;;5020945;28;20087;-81
2022/11/01 06:06:47;;;;;;;8.45;1.60;;;14.50;99.90;;;;;;5027654;28;21491;-81
2022/11/01 06:09:13;;;;;;;6.53;1.70;;;14.40;99.90;;;;;;5018963;28;20072;-82
2022/11/01 06:11:39;;;;;;;5.15;1.60;;;14.30;99.90;;;;;;5029346;28;20037;-80
2022/11/01 06:14:05;;;;;;;5.90;1.38;;;14.30;99.90;;;;;;5036800;28;20029;-82
2022/11/01 06:16:30;;;;;;;10.55;1.70;;;14.20;99.90;;;;;;5044658;28;20387;-82
2022/11/01 06:18:56;;;;;;;6.80;1.60;;;14.20;99.90;;;;;;5039746;28;20053;-81
2022/11/01 06:21:21;;;;;;;8.35;1.52;;;14.00;99.90;;;;;;5026348;28;20033;-82
2022/11/01 06:23:51;;;;;;;10.43;1.75;;;14.10;99.90;;;;;;5043029;28;20060;-84
2022/11/01 06:26:17;;;;;;;6.05;1.23;;;14.00;99.90;;;;;;5027722;28;20135;-83
2022/11/01 06:28:44;;;;;;;6.43;1.35;;;13.90;99.90;;;;;;5033705;28;20053;-82
2022/11/01 06:31:10;;;;;;;6.38;1.20;;;13.80;99.90;;;;;;5022846;28;20143;-80
2022/11/01 06:33:37;;;;;;;3.80;1.08;;;13.90;99.90;;;;;;5033347;28;20047;-81
2022/11/01 06:36:04;;;;;;;8.27;1.40;;;13.80;99.90;;;;;;5023478;28;20045;-82
2022/11/01 06:38:30;;;;;;;9.20;1.83;;;13.70;99.90;;;;;;5009055;28;20051;-81
2022/11/01 06:40:55;;;;;;;7.07;1.30;;;13.60;99.90;;;;;;5028132;28;20120;-83
2022/11/01 06:43:21;;;;;;;4.38;1.30;;;13.50;99.90;;;;;;5028461;28;20107;-83
2022/11/01 06:45:47;;;;;;;5.93;1.27;;;13.50;99.90;;;;;;5025606;28;20154;-81
2022/11/01 06:48:14;;;;;;;9.00;1.35;;;13.50;99.90;;;;;;5035747;28;20057;-82
2022/11/01 06:50:40;;;;;;;8.40;1.45;;;13.50;99.90;;;;;;5029528;28;20148;-83
2022/11/01 06:53:09;;;;;;;4.22;0.88;;;13.40;99.90;;;;;;5044845;28;20040;-84
2022/11/01 06:55:34;;;;;;;6.75;1.00;;;13.50;99.90;;;;;;5045691;28;20122;-82
2022/11/01 06:58:02;;;;;;;10.85;1.60;;;13.30;99.90;;;;;;5043560;28;20076;-83
2022/11/01 07:00:29;;;;;;;6.50;1.40;;;13.30;99.90;;;;;;5034238;28;20091;-83
2022/11/01 07:03:03;;;;;;;16.27;1.80;;;13.30;99.90;;;;;;5028000;28;20056;-83
2022/11/01 07:05:31;;;;;;;11.48;1.55;;;13.40;99.90;;;;;;5020346;28;20048;-81
2022/11/01 07:07:57;;;;;;;12.02;1.73;;;13.30;99.90;;;;;;5031768;28;20049;-83
2022/11/01 07:10:23;;;;;;;12.60;1.73;;;13.30;99.90;;;;;;5029846;28;20045;-81
2022/11/01 07:16:31;;;;;;;9.73;1.85;;;13.10;99.90;;;;;;5047975;28;20036;-82
2022/11/01 07:18:57;;;;;;;15.52;1.92;;;13.10;99.90;;;;;;5028961;28;20194;-81
2022/11/01 07:21:23;;;;;;;15.38;2.17;;;13.10;99.90;;;;;;5043537;28;20477;-80
2022/11/01 07:23:49;;;;;;;8.85;1.70;;;13.20;99.90;;;;;;5022540;28;20053;-79
2022/11/01 07:26:15;;;;;;;10.73;1.75;;;13.20;99.90;;;;;;5019067;28;20048;-82
2022/11/01 07:28:40;;;;;;;13.00;1.83;;;13.20;99.90;;;;;;5036594;28;20056;-84
2022/11/01 07:31:06;;;;;;;9.95;1.90;;;13.30;99.90;;;;;;5023804;28;20091;-80
2022/11/01 07:33:32;;;;;;;10.68;1.70;;;13.40;99.90;;;;;;5024119;28;20053;-83
2022/11/01 07:36:00;;;;;;;11.50;1.92;;;13.40;99.90;;;;;;5033461;28;20049;-80
2022/11/01 07:38:25;;;;;;;17.60;2.30;;;13.50;99.90;;;;;;5023755;28;20072;-80
2022/11/01 07:40:57;;;;;;;18.58;2.20;;;13.50;99.90;;;;;;5021709;28;20465;-82
2022/11/01 07:43:22;;;;;;;24.30;2.50;;;13.50;99.90;;;;;;5024813;28;20120;-81
2022/11/01 07:45:48;;;;;;;17.88;2.83;;;13.50;99.90;;;;;;5030349;28;20125;-78
2022/11/01 07:48:16;;;;;;;10.88;1.85;;;13.50;99.90;;;;;;5015779;28;20046;-82
2022/11/01 07:50:43;;;;;;;14.48;2.03;;;13.50;99.90;;;;;;5043966;28;20055;-80
2022/11/01 07:53:14;;;;;;;13.82;2.13;;;13.60;99.90;;;;;;5023191;28;20511;-83
2022/11/01 07:55:41;;;;;;;11.68;1.83;;;13.60;99.90;;;;;;5032081;28;20040;-81
2022/11/01 07:58:25;;;;;;;17.52;2.50;;;13.80;99.90;;;;;;5037757;28;20134;-82
2022/11/01 08:00:51;;;;;;;12.50;2.05;;;13.80;99.90;;;;;;5037577;28;20443;-83
2022/11/01 08:03:18;;;;;;;15.10;2.05;;;13.80;99.90;;;;;;5033080;28;20053;-81
2022/11/01 08:05:45;;;;;;;13.27;2.20;;;13.90;99.90;;;;;;5033971;28;20049;-78
2022/11/01 08:08:11;;;;;;;13.75;1.90;;;13.90;99.90;;;;;;5029558;28;20065;-83
2022/11/01 08:10:39;;;;;;;15.75;2.03;;;13.90;99.90;;;;;;5028854;28;20056;-82
2022/11/01 08:13:19;;;;;;;13.65;2.15;;;13.90;99.90;;;;;;5034010;28;20140;-83
2022/11/01 08:15:46;;;;;;;18.83;2.28;;;13.90;99.90;;;;;;5043576;28;20116;-84
2022/11/01 08:18:12;;;;;;;17.15;2.22;;;13.90;99.90;;;;;;5033629;28;20041;-81
2022/11/01 08:20:41;;;;;;;17.95;2.53;;;13.90;99.90;;;;;;5023047;28;20120;-81
2022/11/01 08:23:07;;;;;;;15.27;2.15;;;14.00;99.90;;;;;;5047163;28;20428;-83
2022/11/01 08:25:33;;;;;;;21.67;2.45;;;14.00;99.90;;;;;;5032324;28;20041;-80
2022/11/01 08:28:04;;;;;;;17.30;2.60;;;14.10;99.90;;;;;;5026701;28;20052;-82
2022/11/01 08:30:30;;;;;;;15.98;2.50;;;14.10;99.90;;;;;;5035920;28;20116;-80
2022/11/01 08:32:58;;;;;;;19.63;3.05;;;14.10;99.90;;;;;;5035575;28;20052;-82
2022/11/01 08:35:27;;;;;;;23.10;2.88;;;14.10;99.90;;;;;;5026657;28;20123;-83
2022/11/01 08:37:53;;;;;;;21.90;2.92;;;14.10;99.90;;;;;;5033911;28;20045;-83
2022/11/01 08:40:20;;;;;;;15.32;2.47;;;14.20;99.90;;;;;;5039454;28;20049;-85
2022/11/01 08:42:46;;;;;;;17.40;2.80;;;14.20;99.90;;;;;;5023279;28;20053;-86
2022/11/01 08:45:12;;;;;;;16.38;2.47;;;14.10;99.90;;;;;;5026210;28;20083;-83
2022/11/01 08:47:39;;;;;;;18.90;2.75;;;14.10;99.90;;;;;;5046288;28;20558;-81
2022/11/01 08:50:07;;;;;;;20.30;2.95;;;14.10;99.90;;;;;;5037303;28;20039;-83
2022/11/01 08:52:33;;;;;;;22.98;3.40;;;14.10;99.90;;;;;;5031395;28;20132;-82
2022/11/01 08:54:58;;;;;;;13.18;2.60;;;14.10;99.90;;;;;;5030535;28;20061;-79
2022/11/01 08:57:24;;;;;;;29.80;3.38;;;14.10;99.90;;;;;;5032472;28;20099;-81
2022/11/01 08:59:49;;;;;;;21.75;2.88;;;14.20;99.90;;;;;;5046489;28;20404;-86
2022/11/01 09:02:15;;;;;;;21.33;3.20;;;14.10;99.90;;;;;;5033818;28;20053;-83
2022/11/01 09:04:41;;;;;;;23.85;3.60;;;14.10;99.90;;;;;;5043661;28;20033;-84
2022/11/01 09:07:06;;;;;;;18.85;3.33;;;14.10;99.90;;;;;;5030841;28;20542;-83
2022/11/01 09:09:32;;;;;;;20.60;3.90;;;14.20;99.90;;;;;;5045998;28;20412;-83
2022/11/01 09:12:16;;;;;;;22.10;3.33;;;14.30;99.90;;;;;;5046855;28;20049;-81
2022/11/01 09:14:42;;;;;;;23.60;3.90;;;14.20;99.90;;;;;;5009894;28;20115;-82
2022/11/01 09:17:08;;;;;;;26.77;3.35;;;14.30;99.90;;;;;;5015396;28;20448;-81
2022/11/01 09:19:33;;;;;;;22.58;3.55;;;14.50;99.90;;;;;;5017870;28;20058;-82
2022/11/01 09:21:59;;;;;;;32.65;4.28;;;14.50;99.90;;;;;;5018108;28;20079;-83
2022/11/01 09:24:25;;;;;;;21.73;3.28;;;14.60;99.90;;;;;;5012466;28;20053;-82
2022/11/01 09:26:50;;;;;;;21.98;3.20;;;14.70;99.90;;;;;;5033492;28;20044;-84
2022/11/01 09:29:17;;;;;;;25.27;3.58;;;14.70;99.90;;;;;;5017840;28;20385;-80
2022/11/01 09:31:43;;;;;;;20.58;2.92;;;14.80;99.90;;;;;;5029032;28;20037;-84
2022/11/01 09:34:10;;;;;;;18.20;3.15;;;14.80;99.90;;;;;;5029391;28;20136;-82
2022/11/01 09:36:36;;;;;;;19.38;3.40;;;14.80;99.90;;;;;;5024310;28;20063;-84
2022/11/01 09:39:02;;;;;;;22.40;3.58;;;14.80;99.90;;;;;;5019129;28;20040;-79
2022/11/01 09:41:46;;;;;;;34.25;4.05;;;14.80;99.90;;;;;;5023983;28;20060;-86
2022/11/01 09:44:38;;;;;;;17.08;2.90;;;14.80;99.90;;;;;;5013982;28;20041;-86
2022/11/01 09:47:11;;;;;;;25.27;3.33;;;14.90;99.90;;;;;;4960845;28;20053;-80
2022/11/01 09:49:39;;;;;;;21.55;3.67;;;15.00;99.90;;;;;;4951804;28;20165;-83
2022/11/01 09:52:06;;;;;;;26.63;3.35;;;15.00;99.90;;;;;;4954434;28;20089;-80
2022/11/01 09:54:33;;;;;;;22.80;3.70;;;15.00;99.90;;;;;;4942067;28;20058;-82
2022/11/01 09:57:10;;;;;;;17.85;3.40;;;15.10;99.90;;;;;;4935619;29;20110;-83
2022/11/01 09:59:45;;;;;;;24.17;3.42;;;15.00;99.90;;;;;;4946074;28;20039;-85
2022/11/01 10:02:47;;;;;;;24.50;3.65;;;15.00;99.90;;;;;;4958055;28;20503;-81
2022/11/01 10:05:34;;;;;;;16.00;2.85;;;14.90;99.90;;;;;;4948748;28;20054;-83
2022/11/01 10:08:23;;;;;;;20.88;3.78;;;14.90;99.90;;;;;;4957653;28;20475;-83
2022/11/01 10:11:08;;;;;;;25.00;3.35;;;14.90;99.90;;;;;;4958784;28;20050;-80
2022/11/01 10:13:58;;;;;;;20.48;3.10;;;14.90;99.90;;;;;;4975186;28;20126;-84
2022/11/01 10:16:40;;;;;;;22.02;3.75;;;15.10;99.90;;;;;;4958751;28;20058;-83
2022/11/01 10:19:16;;;;;;;25.05;3.90;;;15.30;99.90;;;;;;4942914;28;20051;-83
2022/11/01 10:21:48;;;;;;;30.73;4.10;;;15.30;99.90;;;;;;4947639;28;20043;-82
2022/11/01 10:24:30;;;;;;;22.13;3.85;;;15.30;99.90;;;;;;4991307;28;20084;-80
2022/11/01 10:27:14;;;;;;;25.55;3.67;;;15.30;99.90;;;;;;5019018;28;20083;-81
2022/11/01 10:29:59;;;;;;;25.67;4.10;;;15.10;99.90;;;;;;5018924;28;20053;-81
2022/11/01 10:32:25;;;;;;;18.95;3.70;;;15.10;99.90;;;;;;5010509;28;20504;-82
2022/11/01 10:34:56;;;;;;;25.42;3.90;;;15.30;99.90;;;;;;5021969;28;20056;-80
2022/11/01 10:37:42;;;;;;;26.02;3.90;;;15.20;99.90;;;;;;5019546;28;20087;-81
2022/11/01 10:40:17;;;;;;;22.92;3.20;;;15.20;99.90;;;;;;5054669;28;20048;-83
2022/11/01 10:42:43;;;;;;;21.13;3.50;;;15.20;99.90;;;;;;5026571;28;20052;-86
2022/11/01 10:45:14;;;;;;;22.40;3.08;;;15.20;99.90;;;;;;4984518;28;20125;-83
2022/11/01 10:47:42;;;;;;;20.40;3.58;;;15.20;99.90;;;;;;5017919;28;20587;-80
2022/11/01 10:50:21;;;;;;;39.33;3.70;;;15.10;99.90;;;;;;5022227;28;20053;-80
2022/11/01 10:52:49;;;;;;;22.40;3.65;;;15.20;99.90;;;;;;5017795;28;20098;-83
2022/11/01 10:55:20;;;;;;;26.15;3.72;;;15.20;99.90;;;;;;5036700;28;20715;-81
2022/11/01 10:57:56;;;;;;;25.13;3.88;;;15.30;99.90;;;;;;5016593;28;20049;-84
2022/11/01 11:00:22;;;;;;;24.25;3.53;;;15.30;99.90;;;;;;5011231;28;20052;-82
2022/11/01 11:02:55;;;;;;;21.35;3.55;;;15.30;99.90;;;;;;5013634;28;20076;-80
2022/11/01 11:05:23;;;;;;;22.17;3.60;;;15.20;99.90;;;;;;5033155;28;20435;-83
2022/11/01 11:07:49;;;;;;;26.50;3.25;;;15.10;99.90;;;;;;5013785;28;20045;-79
2022/11/01 11:10:25;;;;;;;24.10;3.38;;;15.10;99.90;;;;;;5016673;28;20052;-83
2022/11/01 11:12:56;;;;;;;28.55;3.88;;;14.90;99.90;;;;;;5012743;28;20057;-79
2022/11/01 11:15:33;;;;;;;17.75;3.22;;;14.90;99.90;;;;;;5016392;28;20044;-85
2022/11/01 11:18:02;;;;;;;23.92;3.47;;;15.00;99.90;;;;;;5032700;28;20037;-84
2022/11/01 11:20:29;;;;;;;20.40;3.33;;;15.10;99.90;;;;;;5031950;28;20049;-80
2022/11/01 11:22:55;;;;;;;17.17;3.55;;;15.10;99.90;;;;;;5042517;28;20097;-83
2022/11/01 11:25:31;;;;;;;23.08;3.70;;;15.10;99.90;;;;;;5029148;28;20052;-81
2022/11/01 11:27:57;;;;;;;23.35;3.22;;;15.10;99.90;;;;;;5018821;28;20139;-79
2022/11/01 11:30:31;;;;;;;17.67;3.72;;;15.10;99.90;;;;;;5026843;28;20123;-83
2022/11/01 11:32:58;;;;;;;24.75;3.58;;;15.20;99.90;;;;;;5005882;28;20144;-81
2022/11/01 11:35:27;;;;;;;25.38;3.17;;;15.30;99.90;;;;;;5028653;28;20099;-84
2022/11/01 11:38:04;;;;;;;18.77;2.90;;;15.10;99.90;;;;;;4999668;28;20044;-84
2022/11/01 11:40:39;;;;;;;21.85;3.03;;;15.20;99.90;;;;;;5003591;28;20103;-82
2022/11/01 11:43:24;;;;;;;20.70;3.78;;;15.20;99.90;;;;;;5016349;28;20041;-80
2022/11/01 11:46:03;;;;;;;;;;;15.30;99.90;;;;;;5001978;28;20037;-81
2022/11/01 11:48:29;;;;;;;17.13;3.28;;;15.40;99.90;;;;;;5035774;28;19977;-82
2022/11/01 11:51:03;;;;;;;19.92;3.78;;;15.50;99.90;;;;;;5033089;28;20045;-85
2022/11/01 11:53:32;;;;;;;17.90;3.13;;;15.50;99.90;;;;;;5029715;28;20045;-85
2022/11/01 11:56:00;;;;;;;21.13;3.58;;;15.40;99.90;;;;;;5019608;28;20136;-83
2022/11/01 11:58:26;;;;;;;18.85;3.50;;;15.50;99.90;;;;;;5036025;28;20073;-82
2022/11/01 12:01:20;;;;;;;21.85;3.35;;;15.50;99.90;;;;;;5027548;28;20182;-81
2022/11/01 12:04:04;;;;;;;27.52;3.53;;;15.70;99.90;;;;;;4999842;28;20106;-82
2022/11/01 12:06:36;;;;;;;23.77;3.17;;;15.80;99.90;;;;;;5008981;28;20045;-81
2022/11/01 12:09:02;;;;;;;25.48;3.70;;;15.80;99.90;;;;;;5004841;28;20068;-85
2022/11/01 12:11:46;;;;;;;17.40;3.78;;;15.70;99.90;;;;;;5016101;28;20189;-81
2022/11/01 12:14:22;;;;;;;25.10;3.33;;;15.80;99.90;;;;;;5008886;28;20562;-80
2022/11/01 12:16:48;;;;;;;16.55;3.30;;;15.80;99.90;;;;;;5007578;28;20055;-80
2022/11/01 12:19:30;;;;;;;16.48;3.05;;;15.90;99.90;;;;;;5015361;28;20496;-83
2022/11/01 12:22:00;;;;;;;22.13;3.30;;;16.00;99.90;;;;;;5011625;28;20063;-83
2022/11/01 12:24:49;;;;;;;19.05;3.75;;;16.10;99.90;;;;;;5025572;28;20075;-80
2022/11/01 12:27:22;;;;;;;17.10;3.13;;;16.10;99.90;;;;;;5018313;28;20126;-83
2022/11/01 12:29:59;;;;;;;20.13;3.15;;;16.20;99.90;;;;;;5031157;28;20049;-80
2022/11/01 12:32:34;;;;;;;21.65;3.10;;;16.10;99.90;;;;;;5033434;28;20049;-81
2022/11/01 12:35:02;;;;;;;;;;;16.10;99.90;;;;;;5038440;28;20077;-81
2022/11/01 12:37:54;;;;;;;16.45;3.03;;;16.10;99.90;;;;;;5002173;28;19936;-81
2022/11/01 12:40:25;;;;;;;15.13;2.78;;;16.10;99.90;;;;;;5037345;28;20045;-83
2022/11/01 12:43:00;;;;;;;19.65;3.03;;;16.20;99.90;;;;;;5021016;28;20056;-85
2022/11/01 12:45:31;;;;;;;14.75;2.72;;;16.20;99.90;;;;;;5017203;28;20045;-81
2022/11/01 12:48:06;;;;;;;24.40;3.38;;;16.30;99.90;;;;;;5040527;28;20056;-83
2022/11/01 12:50:46;;;;;;;16.42;2.97;;;16.30;99.90;;;;;;5040403;28;20061;-82
2022/11/01 12:53:36;;;;;;;11.98;2.78;;;16.40;99.90;;;;;;5043308;28;20421;-81
2022/11/01 12:56:02;;;;;;;16.05;2.88;;;16.30;99.90;;;;;;5004754;28;20045;-84
2022/11/01 12:58:28;;;;;;;14.65;2.72;;;16.30;99.90;;;;;;5027393;28;20052;-84
2022/11/01 13:01:14;;;;;;;19.67;2.92;;;16.30;99.90;;;;;;5026455;28;20500;-83
2022/11/01 13:03:59;;;;;;;17.50;2.72;;;16.30;99.90;;;;;;5054528;28;20073;-85
2022/11/01 13:06:43;;;;;;;15.93;2.65;;;16.30;99.90;;;;;;5036517;28;20159;-82